Adair Village, OR

8:47 PM PDT on October 20, 2014 (GMT -0700)
Sequoia | Change Station
CLOSE
Current Station
Personal Weather Station
Location: Corvallis, OR
Elevation: 348 ft
Nearby Weather Stations

Elev 348 ft 44.60 °N, 123.26 °W | Updated 2 minutes ago

Partly Cloudy
Partly Cloudy
55.2 °F
Feels Like 55.2 °F
N
1.6
Wind Variable Wind from West
Gusts 1.6 mph

Today
High -- | Low -- °F
--% Chance of Precip.
Yesterday
High -- | Low -- °F
Precip. -- in
7:34 AM 6:20 PM
Waning Crescent, 7% visible
Pressure 29.86 in
Visibility 10.0 miles
Clouds Few 12000 ft
Dew Point 54 °F
Humidity 95%
Rainfall 0.18 in
Snow Depth Not available.
UV 0 out of 12
Pollen .30 out of 12
PM2.5 Good
Flu Activity Sporadic
METAR KCVO 210335Z AUTO 00000KT 10SM FEW120 12/10 A2986 RMK AO1

More Conditions Fewer Conditions

Pressure 29.86 in
Visibility 10.0 miles
Clouds Few 12000 ft
Dew Point 54 °F
Humidity 95%
Rainfall 0.18 in
Snow Depth Not available.
UV 0 out of 12
Pollen .30 out of 12
PM2.5 Good
Flu Activity Sporadic
METAR KCVO 210335Z AUTO 00000KT 10SM FEW120 12/10 A2986 RMK AO1

More Conditions Fewer Conditions

10-Day Weather Forecast

Almanac

Astronomy

Oct. 20, 2014 Rise Set
Actual Time 7:34 AM PDT 6:20 PM PDT
Civil Twilight 7:05 AM PDT 6:49 PM PDT
Nautical Twilight 6:31 AM PDT 7:23 PM PDT
Astronomical Twilight 5:57 AM PDT 7:57 PM PDT
Moon 4:21 AM PDT (10/20) 4:51 PM PDT (10/20)
Length of Visible Light 11h 44m
Length of Day
10h 45m
Tomorrow will be 2m 57s shorter.
Waning Crescent, 7% of the Moon is Illuminated
Today
Waning Crescent
Oct 23
New
Oct 30
First Quarter
Nov 6
Full
Nov 14
Last Quarter

Today's Extremes

State Highs State Lows

Community

WunderPhotos

Upload Photos

1,763,594 photos uploaded!

Nearby

Air Quality

  Air Quality AQ Index Pollutant
Yesterday Good
PM2.5
Current Good
PM2.5
Monday Good
PM2.5
Tuesday Good
PM2.5

Snow Depth

Station Depth Elevation
Little Meadows 0 in 4000 ft
Jump Off Joe 0 in 3500 ft
Daly Lake 0 in 3600 ft
Seine Creek 0 in 2000 ft
Marion Forks 0 in 2600 ft

Earthquake Activity

City Distance Mag. Time & Date
No recent earthquake activity has been reported nearby.
Minimum magnitude displayed is 2.5.

Coastal Water Temperatures

Place Temperature
No Stations Reporting

Nearby Weather Stations